AFL601 URSS-UDYZ
Flight info
| Callsign | AFL601 |
|---|---|
| Flight time | 1h 17m |
| Altitude | 31000 |
| Route | TABAN1D TABAN N166 OGMOS B143 IDLER/N0439F310 M747 BARUS DCT OGEVI T918 TIBLO |
| Aircraft | B738/M-SDE2E3FGHIRWXY/LB1 |
Departure
| Time | 2026-05-07 13:28 |
|---|---|
| Airport | Sochi International Airport (URSS) |
Arrival
| Time | 2026-05-07 14:45 |
|---|---|
| Airport | Zvartnots International Airport (UDYZ) |
| Time | Latitude | Longitude | Altitude | Speed | Heading |
|---|---|---|---|---|---|
| 2026-05-07 13:01 | 43.44810 | 39.94380 | 76 ft | 0 kts | 334° |
| 2026-05-07 13:21 | 43.44790 | 39.94393 | 73 ft | 4 kts | 337° |
| 2026-05-07 13:21 | 43.44771 | 39.94404 | 68 ft | 4 kts | 333° |
| 2026-05-07 13:21 | 43.44752 | 39.94418 | 70 ft | 4 kts | 8° |
| 2026-05-07 13:22 | 43.44748 | 39.94408 | 65 ft | 4 kts | 65° |
| 2026-05-07 13:22 | 43.44737 | 39.94376 | 62 ft | 4 kts | 65° |
| 2026-05-07 13:22 | 43.44732 | 39.94359 | 68 ft | 0 kts | 65° |
| 2026-05-07 13:24 | 43.44739 | 39.94382 | 75 ft | 3 kts | 65° |
| 2026-05-07 13:25 | 43.44748 | 39.94408 | 69 ft | 3 kts | 65° |
| 2026-05-07 13:25 | 43.44757 | 39.94438 | 70 ft | 5 kts | 66° |
| 2026-05-07 13:25 | 43.44776 | 39.94494 | 72 ft | 9 kts | 66° |
| 2026-05-07 13:25 | 43.44815 | 39.94602 | 74 ft | 15 kts | 60° |
| 2026-05-07 13:26 | 43.44845 | 39.94741 | 80 ft | 7 kts | 81° |
| 2026-05-07 13:26 | 43.44833 | 39.94798 | 85 ft | 7 kts | 96° |
| 2026-05-07 13:26 | 43.44853 | 39.94881 | 84 ft | 15 kts | 63° |
| 2026-05-07 13:26 | 43.44912 | 39.95034 | 86 ft | 19 kts | 63° |
| 2026-05-07 13:27 | 43.44933 | 39.95161 | 89 ft | 12 kts | 113° |
| 2026-05-07 13:27 | 43.44858 | 39.95209 | 88 ft | 12 kts | 179° |
| 2026-05-07 13:27 | 43.44837 | 39.95183 | 86 ft | 4 kts | 239° |
| 2026-05-07 13:27 | 43.44785 | 39.95040 | 89 ft | 45 kts | 246° |
| 2026-05-07 13:28 | 43.44540 | 39.94321 | 72 ft | 118 kts | 245° |
| 2026-05-07 13:28 | 43.44104 | 39.93051 | 124 ft | 171 kts | 245° |
| 2026-05-07 13:28 | 43.43544 | 39.91415 | 605 ft | 197 kts | 246° |
| 2026-05-07 13:28 | 43.42940 | 39.89784 | 1733 ft | 186 kts | 240° |
| 2026-05-07 13:29 | 43.42276 | 39.88231 | 2473 ft | 198 kts | 240° |
| 2026-05-07 13:29 | 43.41530 | 39.86492 | 2697 ft | 223 kts | 240° |
| 2026-05-07 13:29 | 43.40714 | 39.84573 | 2995 ft | 243 kts | 240° |
| 2026-05-07 13:29 | 43.39825 | 39.82473 | 3382 ft | 261 kts | 240° |
| 2026-05-07 13:30 | 43.38780 | 39.80402 | 4103 ft | 268 kts | 223° |
| 2026-05-07 13:30 | 43.37212 | 39.79028 | 4966 ft | 269 kts | 207° |
| 2026-05-07 13:30 | 43.35496 | 39.77905 | 5674 ft | 276 kts | 205° |
| 2026-05-07 13:30 | 43.33746 | 39.76804 | 6475 ft | 278 kts | 204° |
| 2026-05-07 13:31 | 43.31972 | 39.75690 | 7217 ft | 282 kts | 204° |
| 2026-05-07 13:31 | 43.30189 | 39.74562 | 7976 ft | 284 kts | 205° |
| 2026-05-07 13:31 | 43.28385 | 39.73414 | 8722 ft | 287 kts | 205° |
| 2026-05-07 13:31 | 43.26562 | 39.72248 | 9472 ft | 291 kts | 205° |
| 2026-05-07 13:32 | 43.24720 | 39.71067 | 10196 ft | 295 kts | 205° |
| 2026-05-07 13:32 | 43.22805 | 39.69837 | 10464 ft | 315 kts | 205° |
| 2026-05-07 13:32 | 43.20749 | 39.68515 | 10651 ft | 337 kts | 205° |
| 2026-05-07 13:32 | 43.18579 | 39.67120 | 11031 ft | 349 kts | 205° |
| 2026-05-07 13:33 | 43.16362 | 39.65695 | 11638 ft | 355 kts | 205° |
| 2026-05-07 13:33 | 43.14119 | 39.64253 | 12350 ft | 358 kts | 205° |
| 2026-05-07 13:33 | 43.11855 | 39.62800 | 13046 ft | 361 kts | 205° |
| 2026-05-07 13:33 | 43.09565 | 39.61333 | 13748 ft | 366 kts | 205° |
| 2026-05-07 13:34 | 43.07179 | 39.60068 | 14410 ft | 370 kts | 196° |
| 2026-05-07 13:34 | 43.02085 | 39.58802 | 15818 ft | 375 kts | 188° |
| 2026-05-07 13:34 | 42.99495 | 39.58260 | 16472 ft | 379 kts | 188° |
| 2026-05-07 13:35 | 42.96876 | 39.57707 | 17117 ft | 383 kts | 188° |
| 2026-05-07 13:35 | 42.94187 | 39.57126 | 17792 ft | 387 kts | 189° |
| 2026-05-07 13:35 | 42.91515 | 39.56538 | 18457 ft | 391 kts | 189° |
| 2026-05-07 13:35 | 42.88820 | 39.55939 | 19014 ft | 395 kts | 189° |
| 2026-05-07 13:36 | 42.86099 | 39.55331 | 19582 ft | 398 kts | 189° |
| 2026-05-07 13:36 | 42.83318 | 39.54708 | 20149 ft | 401 kts | 189° |
| 2026-05-07 13:36 | 42.81491 | 39.54299 | 20520 ft | 404 kts | 189° |
| 2026-05-07 13:36 | 42.78051 | 39.53530 | 21185 ft | 408 kts | 189° |
| 2026-05-07 13:37 | 42.75238 | 39.52902 | 21718 ft | 412 kts | 189° |
| 2026-05-07 13:37 | 42.72403 | 39.52270 | 22234 ft | 415 kts | 189° |
| 2026-05-07 13:37 | 42.69528 | 39.51761 | 22734 ft | 419 kts | 179° |
| 2026-05-07 13:37 | 42.66656 | 39.52378 | 23219 ft | 419 kts | 159° |
| 2026-05-07 13:38 | 42.64099 | 39.54234 | 23757 ft | 418 kts | 140° |
| 2026-05-07 13:38 | 42.62086 | 39.57050 | 24202 ft | 416 kts | 123° |
| 2026-05-07 13:38 | 42.60759 | 39.60514 | 24645 ft | 414 kts | 107° |
| 2026-05-07 13:38 | 42.59918 | 39.64247 | 25132 ft | 414 kts | 104° |
| 2026-05-07 13:39 | 42.59133 | 39.68011 | 25569 ft | 415 kts | 104° |
| 2026-05-07 13:39 | 42.58353 | 39.71794 | 26001 ft | 417 kts | 104° |
| 2026-05-07 13:39 | 42.57551 | 39.75634 | 26436 ft | 419 kts | 104° |
| 2026-05-07 13:39 | 42.56819 | 39.79068 | 26827 ft | 420 kts | 104° |
| 2026-05-07 13:40 | 42.55995 | 39.82880 | 27239 ft | 422 kts | 104° |
| 2026-05-07 13:40 | 42.55163 | 39.86692 | 27671 ft | 422 kts | 104° |
| 2026-05-07 13:40 | 42.54327 | 39.90499 | 28259 ft | 419 kts | 104° |
| 2026-05-07 13:40 | 42.53497 | 39.94264 | 28934 ft | 414 kts | 104° |
| 2026-05-07 13:41 | 42.52675 | 39.97989 | 29561 ft | 411 kts | 104° |
| 2026-05-07 13:41 | 42.51859 | 40.01684 | 30097 ft | 409 kts | 104° |
| 2026-05-07 13:41 | 42.51045 | 40.05368 | 30527 ft | 408 kts | 104° |
| 2026-05-07 13:41 | 42.50229 | 40.09061 | 30830 ft | 410 kts | 104° |
| 2026-05-07 13:42 | 42.49406 | 40.12773 | 31096 ft | 412 kts | 105° |
| 2026-05-07 13:42 | 42.47813 | 40.20256 | 31186 ft | 414 kts | 103° |
| 2026-05-07 13:43 | 42.46317 | 40.27748 | 31189 ft | 411 kts | 103° |
| 2026-05-07 13:43 | 42.44832 | 40.35177 | 31195 ft | 411 kts | 103° |
| 2026-05-07 13:44 | 42.43313 | 40.42686 | 31193 ft | 411 kts | 103° |
| 2026-05-07 13:44 | 42.42050 | 40.48889 | 31188 ft | 411 kts | 103° |
| 2026-05-07 13:45 | 42.40276 | 40.57555 | 31190 ft | 411 kts | 103° |
| 2026-05-07 13:45 | 42.38743 | 40.65015 | 31188 ft | 412 kts | 104° |
| 2026-05-07 13:46 | 42.37203 | 40.72481 | 31192 ft | 412 kts | 104° |
| 2026-05-07 13:46 | 42.35909 | 40.78732 | 31186 ft | 412 kts | 104° |
| 2026-05-07 13:47 | 42.34465 | 40.85686 | 31185 ft | 413 kts | 104° |
| 2026-05-07 13:47 | 42.32910 | 40.93150 | 31187 ft | 413 kts | 104° |
| 2026-05-07 13:48 | 42.31350 | 41.00614 | 31181 ft | 413 kts | 104° |
| 2026-05-07 13:48 | 42.30201 | 41.06089 | 31181 ft | 413 kts | 104° |
| 2026-05-07 13:49 | 42.28628 | 41.13565 | 31181 ft | 414 kts | 104° |
| 2026-05-07 13:49 | 42.27051 | 41.21036 | 31179 ft | 414 kts | 104° |
| 2026-05-07 13:50 | 42.25467 | 41.28514 | 31173 ft | 415 kts | 104° |
| 2026-05-07 13:50 | 42.23875 | 41.36000 | 31179 ft | 415 kts | 104° |
| 2026-05-07 13:51 | 42.22277 | 41.43490 | 31173 ft | 416 kts | 104° |
| 2026-05-07 13:51 | 42.20670 | 41.50994 | 31168 ft | 417 kts | 105° |
| 2026-05-07 13:52 | 42.19174 | 41.57954 | 31165 ft | 417 kts | 105° |
| 2026-05-07 13:52 | 42.17605 | 41.65238 | 31169 ft | 418 kts | 105° |
| 2026-05-07 13:53 | 42.15975 | 41.72774 | 31161 ft | 419 kts | 105° |
| 2026-05-07 13:53 | 42.14297 | 41.80303 | 31167 ft | 420 kts | 106° |
| 2026-05-07 13:54 | 42.12591 | 41.87840 | 31163 ft | 421 kts | 107° |
| 2026-05-07 13:54 | 42.10882 | 41.95388 | 31163 ft | 421 kts | 107° |
| 2026-05-07 13:55 | 42.09170 | 42.02943 | 31158 ft | 422 kts | 108° |
| 2026-05-07 13:55 | 42.07452 | 42.10505 | 31159 ft | 423 kts | 108° |
| 2026-05-07 13:56 | 42.05788 | 42.17802 | 31163 ft | 424 kts | 108° |
| 2026-05-07 13:56 | 42.04052 | 42.25388 | 31157 ft | 425 kts | 108° |
| 2026-05-07 13:57 | 42.02305 | 42.33000 | 31153 ft | 426 kts | 108° |
| 2026-05-07 13:57 | 42.00553 | 42.40610 | 31154 ft | 426 kts | 109° |
| 2026-05-07 13:58 | 41.98792 | 42.48231 | 31155 ft | 427 kts | 109° |
| 2026-05-07 13:58 | 41.97027 | 42.55841 | 31150 ft | 427 kts | 109° |
| 2026-05-07 13:59 | 41.95257 | 42.63448 | 31149 ft | 427 kts | 109° |
| 2026-05-07 13:59 | 41.93481 | 42.71060 | 31161 ft | 427 kts | 109° |
| 2026-05-07 14:00 | 41.91699 | 42.78663 | 31142 ft | 427 kts | 110° |
| 2026-05-07 14:00 | 41.88997 | 42.85600 | 31168 ft | 421 kts | 129° |
| 2026-05-07 14:01 | 41.84936 | 42.91204 | 31163 ft | 419 kts | 139° |
| 2026-05-07 14:01 | 41.80615 | 42.96479 | 31166 ft | 420 kts | 140° |
| 2026-05-07 14:02 | 41.76305 | 43.01763 | 31169 ft | 420 kts | 139° |
| 2026-05-07 14:02 | 41.72005 | 43.07076 | 31151 ft | 421 kts | 139° |
| 2026-05-07 14:03 | 41.67708 | 43.12397 | 31159 ft | 421 kts | 139° |
| 2026-05-07 14:03 | 41.63410 | 43.17713 | 31174 ft | 420 kts | 139° |
| 2026-05-07 14:04 | 41.59113 | 43.23016 | 31178 ft | 420 kts | 139° |
| 2026-05-07 14:04 | 41.54816 | 43.28310 | 31169 ft | 420 kts | 139° |
| 2026-05-07 14:05 | 41.50519 | 43.33592 | 31175 ft | 420 kts | 140° |
| 2026-05-07 14:05 | 41.46216 | 43.38871 | 31183 ft | 419 kts | 140° |
| 2026-05-07 14:06 | 41.41921 | 43.44132 | 31179 ft | 419 kts | 140° |
| 2026-05-07 14:06 | 41.37624 | 43.49385 | 31175 ft | 419 kts | 140° |
| 2026-05-07 14:07 | 41.33322 | 43.54634 | 31183 ft | 420 kts | 140° |
| 2026-05-07 14:07 | 41.29011 | 43.59885 | 31176 ft | 420 kts | 141° |
| 2026-05-07 14:08 | 41.24695 | 43.65132 | 31180 ft | 421 kts | 141° |
| 2026-05-07 14:08 | 41.20369 | 43.70383 | 31181 ft | 421 kts | 141° |
| 2026-05-07 14:09 | 41.16045 | 43.75574 | 31158 ft | 410 kts | 146° |
| 2026-05-07 14:09 | 41.13709 | 43.77547 | 31175 ft | 399 kts | 158° |
| 2026-05-07 14:09 | 41.11152 | 43.78890 | 31177 ft | 394 kts | 167° |
| 2026-05-07 14:10 | 41.05774 | 43.79973 | 30889 ft | 392 kts | 177° |
| 2026-05-07 14:10 | 41.03096 | 43.80334 | 30596 ft | 386 kts | 178° |
| 2026-05-07 14:10 | 41.00427 | 43.80698 | 30196 ft | 382 kts | 177° |
| 2026-05-07 14:10 | 40.97792 | 43.81072 | 29746 ft | 379 kts | 177° |
| 2026-05-07 14:11 | 40.95191 | 43.81453 | 29342 ft | 375 kts | 177° |
| 2026-05-07 14:11 | 40.92609 | 43.81837 | 28939 ft | 371 kts | 177° |
| 2026-05-07 14:11 | 40.90058 | 43.82219 | 28514 ft | 367 kts | 177° |
| 2026-05-07 14:11 | 40.87533 | 43.82597 | 28132 ft | 364 kts | 176° |
| 2026-05-07 14:12 | 40.85025 | 43.82973 | 27713 ft | 361 kts | 176° |
| 2026-05-07 14:12 | 40.82538 | 43.83341 | 27323 ft | 358 kts | 177° |
| 2026-05-07 14:12 | 40.80068 | 43.83692 | 26932 ft | 356 kts | 177° |
| 2026-05-07 14:12 | 40.77614 | 43.84037 | 26547 ft | 353 kts | 177° |
| 2026-05-07 14:13 | 40.75178 | 43.84379 | 26164 ft | 351 kts | 177° |
| 2026-05-07 14:13 | 40.72764 | 43.84719 | 25781 ft | 349 kts | 177° |
| 2026-05-07 14:13 | 40.70350 | 43.85042 | 25404 ft | 347 kts | 177° |
| 2026-05-07 14:13 | 40.67951 | 43.85350 | 25028 ft | 345 kts | 177° |
| 2026-05-07 14:14 | 40.65566 | 43.85652 | 24651 ft | 344 kts | 177° |
| 2026-05-07 14:14 | 40.63192 | 43.85954 | 24278 ft | 342 kts | 177° |
| 2026-05-07 14:14 | 40.60828 | 43.86256 | 23896 ft | 341 kts | 176° |
| 2026-05-07 14:14 | 40.58469 | 43.86557 | 23490 ft | 340 kts | 176° |
| 2026-05-07 14:15 | 40.56121 | 43.86858 | 23057 ft | 338 kts | 176° |
| 2026-05-07 14:15 | 40.53791 | 43.87157 | 22668 ft | 336 kts | 176° |
| 2026-05-07 14:15 | 40.51471 | 43.87454 | 22284 ft | 333 kts | 176° |
| 2026-05-07 14:15 | 40.49174 | 43.87749 | 21915 ft | 331 kts | 176° |
| 2026-05-07 14:16 | 40.46892 | 43.88041 | 21564 ft | 328 kts | 177° |
| 2026-05-07 14:16 | 40.44626 | 43.88331 | 21196 ft | 326 kts | 176° |
| 2026-05-07 14:16 | 40.42378 | 43.88618 | 20895 ft | 323 kts | 177° |
| 2026-05-07 14:16 | 40.40202 | 43.89117 | 20748 ft | 317 kts | 162° |
| 2026-05-07 14:17 | 40.38308 | 43.90569 | 20521 ft | 317 kts | 142° |
| 2026-05-07 14:17 | 40.36882 | 43.92797 | 20215 ft | 322 kts | 125° |
| 2026-05-07 14:17 | 40.35722 | 43.95311 | 19899 ft | 324 kts | 123° |
| 2026-05-07 14:17 | 40.34591 | 43.97891 | 19579 ft | 331 kts | 122° |
| 2026-05-07 14:18 | 40.33424 | 44.00579 | 19239 ft | 337 kts | 122° |
| 2026-05-07 14:18 | 40.32259 | 44.03253 | 18882 ft | 337 kts | 122° |
| 2026-05-07 14:18 | 40.31112 | 44.05872 | 18535 ft | 336 kts | 122° |
| 2026-05-07 14:18 | 40.29944 | 44.08520 | 18155 ft | 335 kts | 122° |
| 2026-05-07 14:19 | 40.28779 | 44.11148 | 17782 ft | 333 kts | 122° |
| 2026-05-07 14:19 | 40.27617 | 44.13760 | 17425 ft | 331 kts | 122° |
| 2026-05-07 14:19 | 40.26461 | 44.16353 | 17073 ft | 329 kts | 122° |
| 2026-05-07 14:19 | 40.25309 | 44.18930 | 16741 ft | 327 kts | 123° |
| 2026-05-07 14:20 | 40.24166 | 44.21485 | 16404 ft | 324 kts | 123° |
| 2026-05-07 14:20 | 40.23029 | 44.24024 | 16079 ft | 322 kts | 123° |
| 2026-05-07 14:20 | 40.21881 | 44.26583 | 15749 ft | 321 kts | 123° |
| 2026-05-07 14:20 | 40.20755 | 44.29092 | 15420 ft | 319 kts | 123° |
| 2026-05-07 14:21 | 40.19647 | 44.31560 | 15105 ft | 318 kts | 123° |
| 2026-05-07 14:21 | 40.18513 | 44.34083 | 14772 ft | 317 kts | 123° |
| 2026-05-07 14:21 | 40.17396 | 44.36565 | 14451 ft | 316 kts | 123° |
| 2026-05-07 14:21 | 40.16287 | 44.39028 | 14127 ft | 315 kts | 123° |
| 2026-05-07 14:22 | 40.15176 | 44.41496 | 13790 ft | 314 kts | 123° |
| 2026-05-07 14:22 | 40.14066 | 44.43956 | 13434 ft | 313 kts | 123° |
| 2026-05-07 14:22 | 40.12962 | 44.46402 | 13090 ft | 312 kts | 123° |
| 2026-05-07 14:22 | 40.11864 | 44.48834 | 12760 ft | 310 kts | 123° |
| 2026-05-07 14:23 | 40.10772 | 44.51252 | 12428 ft | 308 kts | 122° |
| 2026-05-07 14:23 | 40.09684 | 44.53656 | 12123 ft | 306 kts | 122° |
| 2026-05-07 14:23 | 40.08610 | 44.56031 | 11935 ft | 300 kts | 122° |
| 2026-05-07 14:23 | 40.07559 | 44.58351 | 11784 ft | 293 kts | 122° |
| 2026-05-07 14:24 | 40.06551 | 44.60576 | 11647 ft | 286 kts | 122° |
| 2026-05-07 14:24 | 40.05538 | 44.62810 | 11521 ft | 278 kts | 122° |
| 2026-05-07 14:24 | 40.04577 | 44.64927 | 11397 ft | 271 kts | 122° |
| 2026-05-07 14:24 | 40.03639 | 44.67064 | 11277 ft | 265 kts | 115° |
| 2026-05-07 14:25 | 40.03288 | 44.69423 | 10998 ft | 266 kts | 91° |
| 2026-05-07 14:25 | 40.03304 | 44.71781 | 10735 ft | 265 kts | 90° |
| 2026-05-07 14:25 | 40.03344 | 44.74183 | 10468 ft | 265 kts | 84° |
| 2026-05-07 14:25 | 40.03972 | 44.76429 | 10172 ft | 266 kts | 54° |
| 2026-05-07 14:26 | 40.05352 | 44.77997 | 9909 ft | 265 kts | 24° |
| 2026-05-07 14:26 | 40.07112 | 44.78573 | 9640 ft | 262 kts | 1° |
| 2026-05-07 14:26 | 40.08925 | 44.78574 | 9368 ft | 260 kts | 354° |
| 2026-05-07 14:26 | 40.10132 | 44.78324 | 9172 ft | 259 kts | 346° |
| 2026-05-07 14:27 | 40.12435 | 44.77518 | 8786 ft | 259 kts | 338° |
| 2026-05-07 14:27 | 40.13898 | 44.76222 | 8501 ft | 254 kts | 308° |
| 2026-05-07 14:27 | 40.14732 | 44.74237 | 8249 ft | 250 kts | 285° |
| 2026-05-07 14:27 | 40.14954 | 44.71997 | 7999 ft | 248 kts | 271° |
| 2026-05-07 14:28 | 40.14981 | 44.69781 | 7900 ft | 240 kts | 270° |
| 2026-05-07 14:28 | 40.14989 | 44.67613 | 7519 ft | 247 kts | 269° |
| 2026-05-07 14:28 | 40.14993 | 44.65328 | 6986 ft | 254 kts | 269° |
| 2026-05-07 14:28 | 40.14993 | 44.63790 | 6682 ft | 255 kts | 270° |
| 2026-05-07 14:29 | 40.14991 | 44.61474 | 6250 ft | 255 kts | 269° |
| 2026-05-07 14:29 | 40.14988 | 44.59171 | 5837 ft | 252 kts | 270° |
| 2026-05-07 14:29 | 40.14983 | 44.56936 | 5678 ft | 236 kts | 270° |
| 2026-05-07 14:29 | 40.14980 | 44.54868 | 5549 ft | 219 kts | 269° |
| 2026-05-07 14:30 | 40.14979 | 44.52951 | 5421 ft | 204 kts | 269° |
| 2026-05-07 14:30 | 40.14916 | 44.51144 | 5045 ft | 196 kts | 264° |
| 2026-05-07 14:30 | 40.14793 | 44.49434 | 4794 ft | 172 kts | 265° |
| 2026-05-07 14:30 | 40.14750 | 44.47940 | 4327 ft | 164 kts | 269° |
| 2026-05-07 14:31 | 40.14761 | 44.46453 | 3822 ft | 160 kts | 270° |
| 2026-05-07 14:31 | 40.14778 | 44.45051 | 3451 ft | 147 kts | 265° |
| 2026-05-07 14:31 | 40.14743 | 44.43815 | 3228 ft | 127 kts | 266° |
| 2026-05-07 14:31 | 40.14747 | 44.42698 | 3033 ft | 126 kts | 268° |
| 2026-05-07 14:32 | 40.14696 | 44.41508 | 3437 ft | 132 kts | 263° |
| 2026-05-07 14:32 | 40.14619 | 44.40115 | 3767 ft | 177 kts | 265° |
| 2026-05-07 14:32 | 40.14602 | 44.38441 | 4533 ft | 190 kts | 271° |
| 2026-05-07 14:32 | 40.14639 | 44.36687 | 5352 ft | 195 kts | 270° |
| 2026-05-07 14:33 | 40.14662 | 44.34816 | 5765 ft | 218 kts | 270° |
| 2026-05-07 14:33 | 40.14667 | 44.32792 | 6380 ft | 226 kts | 270° |
| 2026-05-07 14:33 | 40.14665 | 44.30755 | 7282 ft | 223 kts | 269° |
| 2026-05-07 14:33 | 40.14337 | 44.28755 | 7903 ft | 238 kts | 239° |
| 2026-05-07 14:34 | 40.13056 | 44.27220 | 8158 ft | 269 kts | 205° |
| 2026-05-07 14:34 | 40.11188 | 44.26751 | 8814 ft | 282 kts | 179° |
| 2026-05-07 14:34 | 40.09289 | 44.27375 | 9159 ft | 286 kts | 152° |
| 2026-05-07 14:34 | 40.07800 | 44.29123 | 9181 ft | 294 kts | 122° |
| 2026-05-07 14:35 | 40.07199 | 44.31642 | 9204 ft | 294 kts | 94° |
| 2026-05-07 14:35 | 40.07234 | 44.34310 | 9200 ft | 295 kts | 86° |
| 2026-05-07 14:35 | 40.07420 | 44.36974 | 9191 ft | 295 kts | 85° |
| 2026-05-07 14:35 | 40.07615 | 44.39645 | 9189 ft | 295 kts | 85° |
| 2026-05-07 14:36 | 40.07786 | 44.42312 | 9189 ft | 294 kts | 86° |
| 2026-05-07 14:36 | 40.07931 | 44.44971 | 9173 ft | 294 kts | 86° |
| 2026-05-07 14:36 | 40.08057 | 44.47631 | 9149 ft | 293 kts | 87° |
| 2026-05-07 14:36 | 40.08173 | 44.50300 | 8878 ft | 295 kts | 87° |
| 2026-05-07 14:37 | 40.08280 | 44.52970 | 8622 ft | 295 kts | 87° |
| 2026-05-07 14:37 | 40.08478 | 44.58264 | 8119 ft | 290 kts | 88° |
| 2026-05-07 14:37 | 40.08571 | 44.60860 | 8014 ft | 281 kts | 88° |
| 2026-05-07 14:38 | 40.08662 | 44.63397 | 7981 ft | 270 kts | 88° |
| 2026-05-07 14:38 | 40.08747 | 44.65794 | 7956 ft | 259 kts | 88° |
| 2026-05-07 14:38 | 40.08827 | 44.68087 | 7982 ft | 255 kts | 88° |
| 2026-05-07 14:38 | 40.08907 | 44.70394 | 7972 ft | 252 kts | 88° |
| 2026-05-07 14:39 | 40.08986 | 44.72662 | 7967 ft | 246 kts | 88° |
| 2026-05-07 14:39 | 40.09253 | 44.74839 | 7970 ft | 243 kts | 65° |
| 2026-05-07 14:39 | 40.10296 | 44.76550 | 7983 ft | 239 kts | 33° |
| 2026-05-07 14:39 | 40.11806 | 44.77306 | 7989 ft | 237 kts | 4° |
| 2026-05-07 14:40 | 40.13415 | 44.77061 | 7970 ft | 234 kts | 332° |
| 2026-05-07 14:40 | 40.14543 | 44.75625 | 7984 ft | 229 kts | 294° |
| 2026-05-07 14:40 | 40.14911 | 44.73602 | 7984 ft | 231 kts | 274° |
| 2026-05-07 14:40 | 40.14950 | 44.71505 | 7920 ft | 229 kts | 269° |
| 2026-05-07 14:41 | 40.14922 | 44.69427 | 7553 ft | 226 kts | 269° |
| 2026-05-07 14:41 | 40.14893 | 44.67409 | 7220 ft | 219 kts | 269° |
| 2026-05-07 14:41 | 40.14870 | 44.65443 | 6899 ft | 214 kts | 269° |
| 2026-05-07 14:41 | 40.14853 | 44.63513 | 6586 ft | 209 kts | 269° |
| 2026-05-07 14:42 | 40.14838 | 44.61638 | 6273 ft | 203 kts | 269° |
| 2026-05-07 14:42 | 40.14827 | 44.59820 | 5969 ft | 197 kts | 269° |
| 2026-05-07 14:42 | 40.14816 | 44.58055 | 5667 ft | 191 kts | 269° |
| 2026-05-07 14:42 | 40.14805 | 44.56359 | 5376 ft | 183 kts | 269° |
| 2026-05-07 14:43 | 40.14803 | 44.54703 | 5107 ft | 180 kts | 270° |
| 2026-05-07 14:43 | 40.14800 | 44.53068 | 4833 ft | 179 kts | 270° |
| 2026-05-07 14:43 | 40.14792 | 44.51468 | 4590 ft | 169 kts | 270° |
| 2026-05-07 14:43 | 40.14783 | 44.49958 | 4293 ft | 161 kts | 270° |
| 2026-05-07 14:44 | 40.14775 | 44.48547 | 4065 ft | 153 kts | 271° |
| 2026-05-07 14:44 | 40.14767 | 44.47143 | 3825 ft | 150 kts | 271° |
| 2026-05-07 14:44 | 40.14759 | 44.45788 | 3584 ft | 149 kts | 271° |
| 2026-05-07 14:44 | 40.14752 | 44.44450 | 3368 ft | 148 kts | 272° |
| 2026-05-07 14:45 | 40.14733 | 44.43065 | 3073 ft | 155 kts | 270° |
| 2026-05-07 14:45 | 40.14738 | 44.41657 | 2865 ft | 153 kts | 272° |
| 2026-05-07 14:45 | 40.14737 | 44.40389 | 2835 ft | 121 kts | 269° |
| 2026-05-07 14:45 | 40.14733 | 44.39711 | 2828 ft | 24 kts | 270° |
| 2026-05-07 14:46 | 40.14733 | 44.39498 | 2825 ft | 23 kts | 270° |
| 2026-05-07 14:46 | 40.14732 | 44.39293 | 2823 ft | 22 kts | 270° |
| 2026-05-07 14:46 | 40.14730 | 44.39093 | 2823 ft | 22 kts | 267° |
| 2026-05-07 14:46 | 40.14724 | 44.38898 | 2821 ft | 21 kts | 279° |
| 2026-05-07 14:47 | 40.14725 | 44.38711 | 2823 ft | 20 kts | 263° |
| 2026-05-07 14:47 | 40.14725 | 44.38528 | 2823 ft | 20 kts | 274° |
| 2026-05-07 14:47 | 40.14725 | 44.38351 | 2820 ft | 19 kts | 269° |
| 2026-05-07 14:47 | 40.14766 | 44.38233 | 2820 ft | 12 kts | 344° |
| 2026-05-07 14:48 | 40.14837 | 44.38281 | 2821 ft | 12 kts | 53° |
| 2026-05-07 14:48 | 40.14888 | 44.38367 | 2818 ft | 12 kts | 49° |
| 2026-05-07 14:48 | 40.14951 | 44.38432 | 2820 ft | 11 kts | 52° |
| 2026-05-07 14:48 | 40.14972 | 44.38531 | 2819 ft | 11 kts | 82° |
| 2026-05-07 14:49 | 40.14977 | 44.38631 | 2821 ft | 11 kts | 86° |
| 2026-05-07 14:49 | 40.14980 | 44.38729 | 2820 ft | 11 kts | 94° |
| 2026-05-07 14:49 | 40.14975 | 44.38824 | 2825 ft | 10 kts | 90° |
| 2026-05-07 14:49 | 40.14977 | 44.38916 | 2822 ft | 10 kts | 89° |
| 2026-05-07 14:50 | 40.14978 | 44.39005 | 2822 ft | 10 kts | 89° |
| 2026-05-07 14:50 | 40.14980 | 44.39125 | 2826 ft | 17 kts | 89° |
| 2026-05-07 14:50 | 40.14982 | 44.39285 | 2825 ft | 17 kts | 89° |
| 2026-05-07 14:50 | 40.14982 | 44.39440 | 2826 ft | 17 kts | 90° |
| 2026-05-07 14:51 | 40.14983 | 44.39589 | 2827 ft | 16 kts | 89° |
| 2026-05-07 14:51 | 40.14984 | 44.39733 | 2828 ft | 15 kts | 89° |
| 2026-05-07 14:51 | 40.14985 | 44.39871 | 2830 ft | 15 kts | 89° |
| 2026-05-07 14:51 | 40.14986 | 44.39928 | 2830 ft | 2 kts | 89° |
| 2026-05-07 14:52 | 40.14986 | 44.39947 | 2830 ft | 2 kts | 89° |
| 2026-05-07 14:52 | 40.14986 | 44.39965 | 2831 ft | 2 kts | 89° |
| 2026-05-07 14:52 | 40.14986 | 44.39968 | 2831 ft | 0 kts | 89° |
| 2026-05-07 14:53 | 40.14985 | 44.40007 | 2831 ft | 8 kts | 92° |
| 2026-05-07 14:53 | 40.14983 | 44.40118 | 2832 ft | 17 kts | 90° |
| 2026-05-07 14:53 | 40.14983 | 44.40275 | 2833 ft | 17 kts | 86° |
| 2026-05-07 14:53 | 40.14986 | 44.40427 | 2834 ft | 16 kts | 90° |
| 2026-05-07 14:54 | 40.14986 | 44.40573 | 2835 ft | 16 kts | 90° |
| 2026-05-07 14:54 | 40.14988 | 44.40622 | 2836 ft | 2 kts | 66° |
| 2026-05-07 14:54 | 40.15000 | 44.40633 | 2835 ft | 2 kts | 19° |
| 2026-05-07 14:54 | 40.15017 | 44.40635 | 2836 ft | 3 kts | 6° |
| 2026-05-07 14:55 | 40.15034 | 44.40638 | 2836 ft | 2 kts | 6° |
| 2026-05-07 14:55 | 40.15056 | 44.40640 | 2836 ft | 5 kts | 2° |
| 2026-05-07 14:55 | 40.15099 | 44.40600 | 2836 ft | 0 kts | 284° |
| 2026-05-07 14:55 | 40.15098 | 44.40577 | 2835 ft | 8 kts | 268° |
| 2026-05-07 14:56 | 40.15083 | 44.40531 | 2834 ft | 2 kts | 203° |
| 2026-05-07 14:56 | 40.15068 | 44.40530 | 2835 ft | 2 kts | 178° |
| 2026-05-07 14:56 | 40.15051 | 44.40530 | 2834 ft | 3 kts | 181° |
| 2026-05-07 14:56 | 40.15035 | 44.40530 | 2835 ft | 0 kts | 182° |